sensor_id;sensor_type;location;lat;lon;timestamp;temperature;humidity
41116;DHT22;26861;51.824;4.682;2024-01-25T00:01:12;15.70;66.20
41116;DHT22;26861;51.824;4.682;2024-01-25T00:03:38;15.50;66.30
41116;DHT22;26861;51.824;4.682;2024-01-25T00:06:07;15.40;66.10
41116;DHT22;26861;51.824;4.682;2024-01-25T00:08:33;15.40;62.00
41116;DHT22;26861;51.824;4.682;2024-01-25T00:10:59;15.40;66.30
41116;DHT22;26861;51.824;4.682;2024-01-25T00:13:24;15.40;66.70
41116;DHT22;26861;51.824;4.682;2024-01-25T00:15:50;15.50;67.30
41116;DHT22;26861;51.824;4.682;2024-01-25T00:18:15;15.50;66.60
41116;DHT22;26861;51.824;4.682;2024-01-25T00:20:41;15.50;66.40
41116;DHT22;26861;51.824;4.682;2024-01-25T00:23:06;15.50;66.80
41116;DHT22;26861;51.824;4.682;2024-01-25T00:25:32;15.50;66.60
41116;DHT22;26861;51.824;4.682;2024-01-25T00:27:57;15.60;66.20
41116;DHT22;26861;51.824;4.682;2024-01-25T00:30:23;15.50;66.40
41116;DHT22;26861;51.824;4.682;2024-01-25T00:32:49;15.50;66.80
41116;DHT22;26861;51.824;4.682;2024-01-25T00:35:15;15.50;66.50
41116;DHT22;26861;51.824;4.682;2024-01-25T00:37:40;15.50;65.40
41116;DHT22;26861;51.824;4.682;2024-01-25T00:40:06;15.50;66.20
41116;DHT22;26861;51.824;4.682;2024-01-25T00:42:32;15.50;65.10
41116;DHT22;26861;51.824;4.682;2024-01-25T00:45:00;15.50;66.60
41116;DHT22;26861;51.824;4.682;2024-01-25T00:47:25;15.50;65.70
41116;DHT22;26861;51.824;4.682;2024-01-25T00:49:51;15.50;65.30
41116;DHT22;26861;51.824;4.682;2024-01-25T00:52:18;15.50;66.20
41116;DHT22;26861;51.824;4.682;2024-01-25T00:54:44;15.50;65.60
41116;DHT22;26861;51.824;4.682;2024-01-25T00:57:10;15.50;65.30
41116;DHT22;26861;51.824;4.682;2024-01-25T00:59:36;15.50;64.50
41116;DHT22;26861;51.824;4.682;2024-01-25T01:02:02;15.60;65.90
41116;DHT22;26861;51.824;4.682;2024-01-25T01:04:30;15.50;66.50
41116;DHT22;26861;51.824;4.682;2024-01-25T01:06:56;15.50;65.70
41116;DHT22;26861;51.824;4.682;2024-01-25T01:09:21;15.50;65.70
41116;DHT22;26861;51.824;4.682;2024-01-25T01:11:47;15.60;66.30
41116;DHT22;26861;51.824;4.682;2024-01-25T01:14:12;15.50;66.30
41116;DHT22;26861;51.824;4.682;2024-01-25T01:16:38;15.60;66.60
41116;DHT22;26861;51.824;4.682;2024-01-25T01:19:04;15.50;66.20
41116;DHT22;26861;51.824;4.682;2024-01-25T01:21:33;15.50;62.50
41116;DHT22;26861;51.824;4.682;2024-01-25T01:23:59;15.50;65.90
41116;DHT22;26861;51.824;4.682;2024-01-25T01:26:25;15.50;66.20
41116;DHT22;26861;51.824;4.682;2024-01-25T01:28:51;15.50;66.20
41116;DHT22;26861;51.824;4.682;2024-01-25T01:31:17;15.60;66.00
41116;DHT22;26861;51.824;4.682;2024-01-25T01:33:43;15.50;66.10
41116;DHT22;26861;51.824;4.682;2024-01-25T01:36:08;15.50;66.00
41116;DHT22;26861;51.824;4.682;2024-01-25T01:38:34;15.50;65.90
41116;DHT22;26861;51.824;4.682;2024-01-25T01:41:00;15.50;65.70
41116;DHT22;26861;51.824;4.682;2024-01-25T01:43:26;15.50;66.00
41116;DHT22;26861;51.824;4.682;2024-01-25T01:45:51;15.50;66.10
41116;DHT22;26861;51.824;4.682;2024-01-25T01:48:18;15.50;66.20
41116;DHT22;26861;51.824;4.682;2024-01-25T01:50:44;15.50;65.90
41116;DHT22;26861;51.824;4.682;2024-01-25T01:53:10;15.50;66.00
41116;DHT22;26861;51.824;4.682;2024-01-25T01:55:36;15.60;65.90
41116;DHT22;26861;51.824;4.682;2024-01-25T01:58:03;15.60;65.60
41116;DHT22;26861;51.824;4.682;2024-01-25T02:00:30;15.60;65.60
41116;DHT22;26861;51.824;4.682;2024-01-25T02:02:56;15.50;65.60
41116;DHT22;26861;51.824;4.682;2024-01-25T02:05:25;15.50;62.90
41116;DHT22;26861;51.824;4.682;2024-01-25T02:07:51;15.50;65.90
41116;DHT22;26861;51.824;4.682;2024-01-25T02:10:18;15.50;65.70
41116;DHT22;26861;51.824;4.682;2024-01-25T02:12:44;15.50;65.30
41116;DHT22;26861;51.824;4.682;2024-01-25T02:15:10;15.50;65.80
41116;DHT22;26861;51.824;4.682;2024-01-25T02:17:36;15.50;65.80
41116;DHT22;26861;51.824;4.682;2024-01-25T02:20:02;15.80;65.90
41116;DHT22;26861;51.824;4.682;2024-01-25T02:22:29;15.40;65.30
41116;DHT22;26861;51.824;4.682;2024-01-25T02:24:55;15.50;65.70
41116;DHT22;26861;51.824;4.682;2024-01-25T02:27:20;15.50;65.70
41116;DHT22;26861;51.824;4.682;2024-01-25T02:29:46;15.50;65.90
41116;DHT22;26861;51.824;4.682;2024-01-25T02:32:12;15.40;65.70
41116;DHT22;26861;51.824;4.682;2024-01-25T02:34:38;15.50;65.80
41116;DHT22;26861;51.824;4.682;2024-01-25T02:37:04;15.40;65.80
41116;DHT22;26861;51.824;4.682;2024-01-25T02:39:31;15.50;65.60
41116;DHT22;26861;51.824;4.682;2024-01-25T02:41:57;15.40;65.60
41116;DHT22;26861;51.824;4.682;2024-01-25T02:44:23;15.40;65.50
41116;DHT22;26861;51.824;4.682;2024-01-25T02:46:48;15.40;65.70
41116;DHT22;26861;51.824;4.682;2024-01-25T02:49:14;15.40;65.60
41116;DHT22;26861;51.824;4.682;2024-01-25T02:51:39;15.40;65.50
41116;DHT22;26861;51.824;4.682;2024-01-25T02:54:05;15.30;65.70
41116;DHT22;26861;51.824;4.682;2024-01-25T02:56:30;15.40;65.70
41116;DHT22;26861;51.824;4.682;2024-01-25T02:59:00;15.50;65.40
41116;DHT22;26861;51.824;4.682;2024-01-25T03:01:25;15.30;65.20
41116;DHT22;26861;51.824;4.682;2024-01-25T03:03:51;15.60;65.60
41116;DHT22;26861;51.824;4.682;2024-01-25T03:06:16;15.40;65.50
41116;DHT22;26861;51.824;4.682;2024-01-25T03:08:42;15.30;65.30
41116;DHT22;26861;51.824;4.682;2024-01-25T03:11:07;15.40;65.70
41116;DHT22;26861;51.824;4.682;2024-01-25T03:13:33;15.50;65.60
41116;DHT22;26861;51.824;4.682;2024-01-25T03:16:00;15.40;65.30
41116;DHT22;26861;51.824;4.682;2024-01-25T03:18:26;15.40;65.50
41116;DHT22;26861;51.824;4.682;2024-01-25T03:20:51;15.40;65.60
41116;DHT22;26861;51.824;4.682;2024-01-25T03:23:17;15.40;65.40
41116;DHT22;26861;51.824;4.682;2024-01-25T03:25:43;16.10;65.50
41116;DHT22;26861;51.824;4.682;2024-01-25T03:28:09;15.30;65.60
41116;DHT22;26861;51.824;4.682;2024-01-25T03:30:36;15.40;65.30
41116;DHT22;26861;51.824;4.682;2024-01-25T03:33:02;15.40;65.50
41116;DHT22;26861;51.824;4.682;2024-01-25T03:35:27;15.10;65.10
41116;DHT22;26861;51.824;4.682;2024-01-25T03:37:53;15.30;65.50
41116;DHT22;26861;51.824;4.682;2024-01-25T03:40:18;15.00;65.30
41116;DHT22;26861;51.824;4.682;2024-01-25T03:42:44;15.30;65.20
41116;DHT22;26861;51.824;4.682;2024-01-25T03:45:09;15.30;66.10
41116;DHT22;26861;51.824;4.682;2024-01-25T03:47:35;15.30;66.00
41116;DHT22;26861;51.824;4.682;2024-01-25T03:50:00;15.40;65.80
41116;DHT22;26861;51.824;4.682;2024-01-25T03:52:26;15.30;65.40
41116;DHT22;26861;51.824;4.682;2024-01-25T03:54:55;15.20;65.20
41116;DHT22;26861;51.824;4.682;2024-01-25T03:57:20;15.30;65.80
41116;DHT22;26861;51.824;4.682;2024-01-25T03:59:46;15.30;65.80
41116;DHT22;26861;51.824;4.682;2024-01-25T04:02:11;15.40;65.40
41116;DHT22;26861;51.824;4.682;2024-01-25T04:04:37;15.30;65.90
41116;DHT22;26861;51.824;4.682;2024-01-25T04:07:03;15.30;65.90
41116;DHT22;26861;51.824;4.682;2024-01-25T04:09:28;15.30;65.10
41116;DHT22;26861;51.824;4.682;2024-01-25T04:11:54;15.30;65.80
41116;DHT22;26861;51.824;4.682;2024-01-25T04:14:19;15.20;65.90
41116;DHT22;26861;51.824;4.682;2024-01-25T04:16:45;15.30;65.50
41116;DHT22;26861;51.824;4.682;2024-01-25T04:19:12;15.30;66.00
41116;DHT22;26861;51.824;4.682;2024-01-25T04:21:38;15.30;65.30
41116;DHT22;26861;51.824;4.682;2024-01-25T04:24:03;15.30;65.60
41116;DHT22;26861;51.824;4.682;2024-01-25T04:26:29;15.20;65.00
41116;DHT22;26861;51.824;4.682;2024-01-25T04:28:55;15.20;65.80
41116;DHT22;26861;51.824;4.682;2024-01-25T04:31:20;15.30;65.70
41116;DHT22;26861;51.824;4.682;2024-01-25T04:33:46;15.20;65.50
41116;DHT22;26861;51.824;4.682;2024-01-25T04:36:12;15.20;65.70
41116;DHT22;26861;51.824;4.682;2024-01-25T04:38:38;15.20;65.60
41116;DHT22;26861;51.824;4.682;2024-01-25T04:41:04;15.20;65.40
41116;DHT22;26861;51.824;4.682;2024-01-25T04:43:33;15.20;65.40
41116;DHT22;26861;51.824;4.682;2024-01-25T04:46:00;15.20;65.80
41116;DHT22;26861;51.824;4.682;2024-01-25T04:48:25;15.30;65.70
41116;DHT22;26861;51.824;4.682;2024-01-25T04:50:51;15.20;65.20
41116;DHT22;26861;51.824;4.682;2024-01-25T04:53:16;15.20;65.70
41116;DHT22;26861;51.824;4.682;2024-01-25T04:55:42;15.20;65.60
41116;DHT22;26861;51.824;4.682;2024-01-25T04:58:07;15.20;65.30
41116;DHT22;26861;51.824;4.682;2024-01-25T05:00:33;15.30;65.50
41116;DHT22;26861;51.824;4.682;2024-01-25T05:02:59;15.30;65.20
41116;DHT22;26861;51.824;4.682;2024-01-25T05:05:24;15.20;65.50
41116;DHT22;26861;51.824;4.682;2024-01-25T05:07:50;15.20;65.50
41116;DHT22;26861;51.824;4.682;2024-01-25T05:10:15;15.20;65.30
41116;DHT22;26861;51.824;4.682;2024-01-25T05:12:41;15.20;65.70
41116;DHT22;26861;51.824;4.682;2024-01-25T05:15:06;15.20;65.50
41116;DHT22;26861;51.824;4.682;2024-01-25T05:17:33;15.20;63.70
41116;DHT22;26861;51.824;4.682;2024-01-25T05:19:58;15.20;65.30
41116;DHT22;26861;51.824;4.682;2024-01-25T05:22:24;15.20;65.50
41116;DHT22;26861;51.824;4.682;2024-01-25T05:24:49;15.20;65.50
41116;DHT22;26861;51.824;4.682;2024-01-25T05:27:15;15.30;65.50
41116;DHT22;26861;51.824;4.682;2024-01-25T05:29:40;15.20;65.60
41116;DHT22;26861;51.824;4.682;2024-01-25T05:32:06;15.20;65.50
41116;DHT22;26861;51.824;4.682;2024-01-25T05:34:31;15.20;65.30
41116;DHT22;26861;51.824;4.682;2024-01-25T05:36:56;15.20;65.20
41116;DHT22;26861;51.824;4.682;2024-01-25T05:39:22;15.30;65.40
41116;DHT22;26861;51.824;4.682;2024-01-25T05:41:47;15.20;65.20
41116;DHT22;26861;51.824;4.682;2024-01-25T05:44:13;15.30;65.30
41116;DHT22;26861;51.824;4.682;2024-01-25T05:46:39;15.20;65.50
41116;DHT22;26861;51.824;4.682;2024-01-25T05:49:05;15.20;65.30
41116;DHT22;26861;51.824;4.682;2024-01-25T05:51:31;15.20;65.30
41116;DHT22;26861;51.824;4.682;2024-01-25T05:53:57;15.20;65.40
41116;DHT22;26861;51.824;4.682;2024-01-25T05:56:22;15.20;65.50
41116;DHT22;26861;51.824;4.682;2024-01-25T05:58:48;15.20;65.30
41116;DHT22;26861;51.824;4.682;2024-01-25T06:01:14;15.00;64.60
41116;DHT22;26861;51.824;4.682;2024-01-25T06:03:40;15.30;65.20
41116;DHT22;26861;51.824;4.682;2024-01-25T06:06:06;15.20;65.30
41116;DHT22;26861;51.824;4.682;2024-01-25T06:08:33;15.20;65.10
41116;DHT22;26861;51.824;4.682;2024-01-25T06:11:00;15.20;65.20
41116;DHT22;26861;51.824;4.682;2024-01-25T06:13:26;15.10;65.20
41116;DHT22;26861;51.824;4.682;2024-01-25T06:15:52;15.20;64.90
41116;DHT22;26861;51.824;4.682;2024-01-25T06:18:18;15.20;65.00
41116;DHT22;26861;51.824;4.682;2024-01-25T06:20:44;15.10;64.70
41116;DHT22;26861;51.824;4.682;2024-01-25T06:23:09;14.90;65.20
41116;DHT22;26861;51.824;4.682;2024-01-25T06:25:35;15.20;65.20
41116;DHT22;26861;51.824;4.682;2024-01-25T06:28:01;15.50;65.30
41116;DHT22;26861;51.824;4.682;2024-01-25T06:30:29;15.20;65.20
41116;DHT22;26861;51.824;4.682;2024-01-25T06:32:55;15.40;65.10
41116;DHT22;26861;51.824;4.682;2024-01-25T06:35:21;15.20;64.80
41116;DHT22;26861;51.824;4.682;2024-01-25T06:37:47;15.10;65.10
41116;DHT22;26861;51.824;4.682;2024-01-25T06:40:12;15.20;65.20
41116;DHT22;26861;51.824;4.682;2024-01-25T06:42:38;15.10;64.80
41116;DHT22;26861;51.824;4.682;2024-01-25T06:45:03;15.20;65.10
41116;DHT22;26861;51.824;4.682;2024-01-25T06:47:29;15.20;63.80
41116;DHT22;26861;51.824;4.682;2024-01-25T06:49:54;15.20;65.30
41116;DHT22;26861;51.824;4.682;2024-01-25T06:52:20;15.30;65.00
41116;DHT22;26861;51.824;4.682;2024-01-25T06:54:46;15.20;64.80
41116;DHT22;26861;51.824;4.682;2024-01-25T06:57:12;15.00;65.10
41116;DHT22;26861;51.824;4.682;2024-01-25T06:59:39;15.10;64.40
41116;DHT22;26861;51.824;4.682;2024-01-25T07:02:05;15.10;64.00
41116;DHT22;26861;51.824;4.682;2024-01-25T07:04:30;15.20;64.60
41116;DHT22;26861;51.824;4.682;2024-01-25T07:06:56;15.30;64.60
41116;DHT22;26861;51.824;4.682;2024-01-25T07:09:22;15.10;64.40
41116;DHT22;26861;51.824;4.682;2024-01-25T07:11:47;15.20;64.40
41116;DHT22;26861;51.824;4.682;2024-01-25T07:14:12;15.10;64.50
41116;DHT22;26861;51.824;4.682;2024-01-25T07:16:38;15.20;64.60
41116;DHT22;26861;51.824;4.682;2024-01-25T07:19:03;15.10;64.70
41116;DHT22;26861;51.824;4.682;2024-01-25T07:21:30;15.10;64.60
41116;DHT22;26861;51.824;4.682;2024-01-25T07:23:59;15.00;64.50
41116;DHT22;26861;51.824;4.682;2024-01-25T07:26:24;14.90;65.10
41116;DHT22;26861;51.824;4.682;2024-01-25T07:28:50;15.10;64.60
41116;DHT22;26861;51.824;4.682;2024-01-25T07:31:19;15.00;65.20
41116;DHT22;26861;51.824;4.682;2024-01-25T07:33:45;15.00;65.20
41116;DHT22;26861;51.824;4.682;2024-01-25T07:36:11;15.30;65.20
41116;DHT22;26861;51.824;4.682;2024-01-25T07:38:36;15.10;65.30
41116;DHT22;26861;51.824;4.682;2024-01-25T07:41:02;15.00;65.30
41116;DHT22;26861;51.824;4.682;2024-01-25T07:43:27;15.50;65.50
41116;DHT22;26861;51.824;4.682;2024-01-25T07:45:53;15.00;65.20
41116;DHT22;26861;51.824;4.682;2024-01-25T07:48:18;15.00;65.10
41116;DHT22;26861;51.824;4.682;2024-01-25T07:50:44;15.40;65.20
41116;DHT22;26861;51.824;4.682;2024-01-25T07:53:09;15.00;65.20
41116;DHT22;26861;51.824;4.682;2024-01-25T07:55:36;15.10;65.00
41116;DHT22;26861;51.824;4.682;2024-01-25T07:58:01;15.00;65.10
41116;DHT22;26861;51.824;4.682;2024-01-25T08:00:27;15.00;65.40
41116;DHT22;26861;51.824;4.682;2024-01-25T08:02:52;15.00;64.70
41116;DHT22;26861;51.824;4.682;2024-01-25T08:05:18;15.00;65.20
41116;DHT22;26861;51.824;4.682;2024-01-25T08:07:44;15.00;64.80
41116;DHT22;26861;51.824;4.682;2024-01-25T08:10:10;15.00;65.50
41116;DHT22;26861;51.824;4.682;2024-01-25T08:12:35;15.00;65.00
41116;DHT22;26861;51.824;4.682;2024-01-25T08:15:01;15.00;65.10
41116;DHT22;26861;51.824;4.682;2024-01-25T08:17:26;14.90;65.30
41116;DHT22;26861;51.824;4.682;2024-01-25T08:19:52;15.00;65.10
41116;DHT22;26861;51.824;4.682;2024-01-25T08:22:17;15.30;65.10
41116;DHT22;26861;51.824;4.682;2024-01-25T08:24:43;14.90;65.20
41116;DHT22;26861;51.824;4.682;2024-01-25T08:27:08;15.00;65.30
41116;DHT22;26861;51.824;4.682;2024-01-25T08:29:34;15.10;65.10
41116;DHT22;26861;51.824;4.682;2024-01-25T08:31:59;15.00;65.10
41116;DHT22;26861;51.824;4.682;2024-01-25T08:34:25;14.90;65.40
41116;DHT22;26861;51.824;4.682;2024-01-25T08:36:50;14.90;65.10
41116;DHT22;26861;51.824;4.682;2024-01-25T08:39:16;15.00;65.10
41116;DHT22;26861;51.824;4.682;2024-01-25T08:41:41;14.90;64.90
41116;DHT22;26861;51.824;4.682;2024-01-25T08:44:09;15.00;65.20
41116;DHT22;26861;51.824;4.682;2024-01-25T08:46:34;14.90;65.10
41116;DHT22;26861;51.824;4.682;2024-01-25T08:49:00;15.00;65.10
41116;DHT22;26861;51.824;4.682;2024-01-25T08:51:25;15.90;65.60
41116;DHT22;26861;51.824;4.682;2024-01-25T08:53:51;14.90;65.30
41116;DHT22;26861;51.824;4.682;2024-01-25T08:56:19;15.00;65.10
41116;DHT22;26861;51.824;4.682;2024-01-25T08:58:45;15.10;61.00
41116;DHT22;26861;51.824;4.682;2024-01-25T09:01:12;14.90;64.90
41116;DHT22;26861;51.824;4.682;2024-01-25T09:03:38;14.90;65.50
41116;DHT22;26861;51.824;4.682;2024-01-25T09:06:03;14.90;65.50
41116;DHT22;26861;51.824;4.682;2024-01-25T09:08:31;15.00;64.90
41116;DHT22;26861;51.824;4.682;2024-01-25T09:10:57;15.00;65.00
41116;DHT22;26861;51.824;4.682;2024-01-25T09:13:23;14.90;64.80
41116;DHT22;26861;51.824;4.682;2024-01-25T09:15:49;14.90;65.20
41116;DHT22;26861;51.824;4.682;2024-01-25T09:18:14;14.90;65.50
41116;DHT22;26861;51.824;4.682;2024-01-25T09:20:40;15.00;65.10
41116;DHT22;26861;51.824;4.682;2024-01-25T09:23:06;15.00;65.40
41116;DHT22;26861;51.824;4.682;2024-01-25T09:25:31;14.90;65.50
41116;DHT22;26861;51.824;4.682;2024-01-25T09:27:57;15.00;65.50
41116;DHT22;26861;51.824;4.682;2024-01-25T09:30:23;15.00;65.60
41116;DHT22;26861;51.824;4.682;2024-01-25T09:32:48;15.00;65.70
41116;DHT22;26861;51.824;4.682;2024-01-25T09:35:14;15.00;65.60
41116;DHT22;26861;51.824;4.682;2024-01-25T09:37:40;15.00;65.20
41116;DHT22;26861;51.824;4.682;2024-01-25T09:40:05;15.00;65.90
41116;DHT22;26861;51.824;4.682;2024-01-25T09:42:31;15.00;63.90
41116;DHT22;26861;51.824;4.682;2024-01-25T09:44:57;15.00;65.70
41116;DHT22;26861;51.824;4.682;2024-01-25T09:47:22;15.10;66.00
41116;DHT22;26861;51.824;4.682;2024-01-25T09:49:48;15.00;65.60
41116;DHT22;26861;51.824;4.682;2024-01-25T09:52:14;15.00;65.80
41116;DHT22;26861;51.824;4.682;2024-01-25T09:54:40;15.00;65.90
41116;DHT22;26861;51.824;4.682;2024-01-25T09:57:08;15.10;66.60
41116;DHT22;26861;51.824;4.682;2024-01-25T09:59:38;15.10;65.90
41116;DHT22;26861;51.824;4.682;2024-01-25T10:02:04;15.20;65.10
41116;DHT22;26861;51.824;4.682;2024-01-25T10:04:30;15.10;65.90
41116;DHT22;26861;51.824;4.682;2024-01-25T10:06:55;15.10;65.90
41116;DHT22;26861;51.824;4.682;2024-01-25T10:09:22;15.10;65.70
41116;DHT22;26861;51.824;4.682;2024-01-25T10:11:48;15.20;65.80
41116;DHT22;26861;51.824;4.682;2024-01-25T10:14:13;15.10;66.20
41116;DHT22;26861;51.824;4.682;2024-01-25T10:16:39;15.10;66.00
41116;DHT22;26861;51.824;4.682;2024-01-25T10:19:06;15.10;66.00
41116;DHT22;26861;51.824;4.682;2024-01-25T10:21:32;15.10;65.90
41116;DHT22;26861;51.824;4.682;2024-01-25T10:23:57;15.10;65.90
41116;DHT22;26861;51.824;4.682;2024-01-25T10:26:26;15.00;65.70
41116;DHT22;26861;51.824;4.682;2024-01-25T10:28:53;15.10;66.20
41116;DHT22;26861;51.824;4.682;2024-01-25T10:31:22;15.00;65.90
41116;DHT22;26861;51.824;4.682;2024-01-25T10:33:47;15.10;65.90
41116;DHT22;26861;51.824;4.682;2024-01-25T10:36:13;15.10;65.80
41116;DHT22;26861;51.824;4.682;2024-01-25T10:38:39;15.10;66.00
41116;DHT22;26861;51.824;4.682;2024-01-25T10:41:05;15.10;66.00
41116;DHT22;26861;51.824;4.682;2024-01-25T10:43:31;15.10;66.00
41116;DHT22;26861;51.824;4.682;2024-01-25T10:45:57;15.10;66.30
41116;DHT22;26861;51.824;4.682;2024-01-25T10:48:27;15.00;66.10
41116;DHT22;26861;51.824;4.682;2024-01-25T10:50:53;15.20;61.40
41116;DHT22;26861;51.824;4.682;2024-01-25T10:53:19;15.10;66.20
41116;DHT22;26861;51.824;4.682;2024-01-25T10:55:45;15.10;66.00
41116;DHT22;26861;51.824;4.682;2024-01-25T10:58:14;15.00;65.80
41116;DHT22;26861;51.824;4.682;2024-01-25T11:00:39;15.10;61.40
41116;DHT22;26861;51.824;4.682;2024-01-25T11:03:08;15.10;65.50
41116;DHT22;26861;51.824;4.682;2024-01-25T11:05:33;15.10;61.40
41116;DHT22;26861;51.824;4.682;2024-01-25T11:07:59;15.10;66.30
41116;DHT22;26861;51.824;4.682;2024-01-25T11:10:25;15.00;66.20
41116;DHT22;26861;51.824;4.682;2024-01-25T11:12:54;15.00;66.00
41116;DHT22;26861;51.824;4.682;2024-01-25T11:15:24;15.20;66.20
41116;DHT22;26861;51.824;4.682;2024-01-25T11:17:54;14.70;61.20
41116;DHT22;26861;51.824;4.682;2024-01-25T11:20:23;15.10;66.00
41116;DHT22;26861;51.824;4.682;2024-01-25T11:22:54;15.10;61.50
41116;DHT22;26861;51.824;4.682;2024-01-25T11:25:20;15.10;66.20
41116;DHT22;26861;51.824;4.682;2024-01-25T11:27:47;15.10;66.10
41116;DHT22;26861;51.824;4.682;2024-01-25T11:30:13;15.30;66.50
41116;DHT22;26861;51.824;4.682;2024-01-25T11:32:39;15.00;65.70
41116;DHT22;26861;51.824;4.682;2024-01-25T11:35:05;15.10;66.00
41116;DHT22;26861;51.824;4.682;2024-01-25T11:37:34;15.10;65.50
41116;DHT22;26861;51.824;4.682;2024-01-25T11:40:02;15.10;66.00
41116;DHT22;26861;51.824;4.682;2024-01-25T11:42:28;15.10;65.10
41116;DHT22;26861;51.824;4.682;2024-01-25T11:44:56;15.10;66.00
41116;DHT22;26861;51.824;4.682;2024-01-25T11:47:22;15.10;66.20
41116;DHT22;26861;51.824;4.682;2024-01-25T11:49:47;15.20;66.30
41116;DHT22;26861;51.824;4.682;2024-01-25T11:52:13;15.10;66.20
41116;DHT22;26861;51.824;4.682;2024-01-25T11:54:40;15.30;66.50
41116;DHT22;26861;51.824;4.682;2024-01-25T11:57:05;15.10;67.20
41116;DHT22;26861;51.824;4.682;2024-01-25T11:59:31;15.20;66.20
41116;DHT22;26861;51.824;4.682;2024-01-25T12:01:57;15.10;65.70
41116;DHT22;26861;51.824;4.682;2024-01-25T12:04:24;15.20;66.40
41116;DHT22;26861;51.824;4.682;2024-01-25T12:06:49;15.10;66.30
41116;DHT22;26861;51.824;4.682;2024-01-25T12:09:15;15.30;65.80
41116;DHT22;26861;51.824;4.682;2024-01-25T12:11:41;15.10;66.60
41116;DHT22;26861;51.824;4.682;2024-01-25T12:14:07;15.20;66.30
41116;DHT22;26861;51.824;4.682;2024-01-25T12:16:33;15.20;66.40
41116;DHT22;26861;51.824;4.682;2024-01-25T12:18:58;15.10;66.20
41116;DHT22;26861;51.824;4.682;2024-01-25T12:21:24;16.00;66.90
41116;DHT22;26861;51.824;4.682;2024-01-25T12:23:49;15.20;66.40
41116;DHT22;26861;51.824;4.682;2024-01-25T12:26:16;15.20;66.40
41116;DHT22;26861;51.824;4.682;2024-01-25T12:28:41;15.10;66.30
41116;DHT22;26861;51.824;4.682;2024-01-25T12:31:07;15.10;66.30
41116;DHT22;26861;51.824;4.682;2024-01-25T12:33:34;15.20;66.40
41116;DHT22;26861;51.824;4.682;2024-01-25T12:36:00;15.10;66.30
41116;DHT22;26861;51.824;4.682;2024-01-25T12:38:26;15.20;66.50
41116;DHT22;26861;51.824;4.682;2024-01-25T12:40:52;15.20;66.40
41116;DHT22;26861;51.824;4.682;2024-01-25T12:43:18;15.20;66.30
41116;DHT22;26861;51.824;4.682;2024-01-25T12:45:44;15.40;66.50
41116;DHT22;26861;51.824;4.682;2024-01-25T12:48:10;15.20;66.50
41116;DHT22;26861;51.824;4.682;2024-01-25T12:50:36;15.10;66.40
41116;DHT22;26861;51.824;4.682;2024-01-25T12:53:02;15.10;66.40
41116;DHT22;26861;51.824;4.682;2024-01-25T12:55:31;15.10;66.50
41116;DHT22;26861;51.824;4.682;2024-01-25T12:57:58;15.20;62.10
41116;DHT22;26861;51.824;4.682;2024-01-25T13:00:24;15.20;66.70
41116;DHT22;26861;51.824;4.682;2024-01-25T13:02:49;15.10;66.20
41116;DHT22;26861;51.824;4.682;2024-01-25T13:05:15;15.20;66.70
41116;DHT22;26861;51.824;4.682;2024-01-25T13:07:40;15.20;66.50
41116;DHT22;26861;51.824;4.682;2024-01-25T13:10:06;15.20;66.80
41116;DHT22;26861;51.824;4.682;2024-01-25T13:12:32;15.30;65.20
41116;DHT22;26861;51.824;4.682;2024-01-25T13:14:57;15.20;66.80
41116;DHT22;26861;51.824;4.682;2024-01-25T13:17:23;15.20;66.70
41116;DHT22;26861;51.824;4.682;2024-01-25T13:19:50;15.20;66.50
41116;DHT22;26861;51.824;4.682;2024-01-25T13:22:16;15.20;66.80
41116;DHT22;26861;51.824;4.682;2024-01-25T13:24:42;15.10;66.80
41116;DHT22;26861;51.824;4.682;2024-01-25T13:27:08;15.20;66.50
41116;DHT22;26861;51.824;4.682;2024-01-25T13:29:34;15.20;66.70
41116;DHT22;26861;51.824;4.682;2024-01-25T13:31:59;15.20;66.60
41116;DHT22;26861;51.824;4.682;2024-01-25T13:34:25;15.20;67.00
41116;DHT22;26861;51.824;4.682;2024-01-25T13:36:50;15.20;66.80
41116;DHT22;26861;51.824;4.682;2024-01-25T13:39:16;15.20;66.80
41116;DHT22;26861;51.824;4.682;2024-01-25T13:41:41;15.20;66.70
41116;DHT22;26861;51.824;4.682;2024-01-25T13:44:07;15.20;67.20
41116;DHT22;26861;51.824;4.682;2024-01-25T13:46:32;15.10;67.00
41116;DHT22;26861;51.824;4.682;2024-01-25T13:48:58;15.20;66.90
41116;DHT22;26861;51.824;4.682;2024-01-25T13:51:23;15.40;67.00
41116;DHT22;26861;51.824;4.682;2024-01-25T13:53:49;15.20;67.00
41116;DHT22;26861;51.824;4.682;2024-01-25T13:56:14;15.20;67.00
41116;DHT22;26861;51.824;4.682;2024-01-25T13:58:40;15.00;66.70
41116;DHT22;26861;51.824;4.682;2024-01-25T14:01:05;15.40;67.20
41116;DHT22;26861;51.824;4.682;2024-01-25T14:03:31;15.20;66.60
41116;DHT22;26861;51.824;4.682;2024-01-25T14:05:56;15.40;67.10
41116;DHT22;26861;51.824;4.682;2024-01-25T14:08:22;15.20;66.80
41116;DHT22;26861;51.824;4.682;2024-01-25T14:10:48;15.20;67.20
41116;DHT22;26861;51.824;4.682;2024-01-25T14:13:13;15.20;66.90
41116;DHT22;26861;51.824;4.682;2024-01-25T14:15:39;15.20;67.20
41116;DHT22;26861;51.824;4.682;2024-01-25T14:18:07;15.20;66.80
41116;DHT22;26861;51.824;4.682;2024-01-25T14:20:32;15.30;67.20
41116;DHT22;26861;51.824;4.682;2024-01-25T14:22:58;15.20;66.90
41116;DHT22;26861;51.824;4.682;2024-01-25T14:25:23;15.20;67.00
41116;DHT22;26861;51.824;4.682;2024-01-25T14:27:49;15.20;67.20
41116;DHT22;26861;51.824;4.682;2024-01-25T14:30:14;15.20;67.00
41116;DHT22;26861;51.824;4.682;2024-01-25T14:32:40;15.20;66.70
41116;DHT22;26861;51.824;4.682;2024-01-25T14:35:06;15.30;66.90
41116;DHT22;26861;51.824;4.682;2024-01-25T14:37:32;15.20;65.70
41116;DHT22;26861;51.824;4.682;2024-01-25T14:39:57;15.30;67.20
41116;DHT22;26861;51.824;4.682;2024-01-25T14:42:23;15.30;67.00
41116;DHT22;26861;51.824;4.682;2024-01-25T14:44:48;15.20;66.80
41116;DHT22;26861;51.824;4.682;2024-01-25T14:47:14;15.30;67.20
41116;DHT22;26861;51.824;4.682;2024-01-25T14:49:45;15.30;67.00
41116;DHT22;26861;51.824;4.682;2024-01-25T14:52:11;15.20;67.00
41116;DHT22;26861;51.824;4.682;2024-01-25T14:54:36;15.20;67.20
41116;DHT22;26861;51.824;4.682;2024-01-25T14:57:02;15.20;67.30
41116;DHT22;26861;51.824;4.682;2024-01-25T14:59:27;15.20;66.70
41116;DHT22;26861;51.824;4.682;2024-01-25T15:01:52;15.20;66.50
41116;DHT22;26861;51.824;4.682;2024-01-25T15:04:18;15.20;67.00
41116;DHT22;26861;51.824;4.682;2024-01-25T15:06:43;15.30;67.20
41116;DHT22;26861;51.824;4.682;2024-01-25T15:09:09;15.20;67.20
41116;DHT22;26861;51.824;4.682;2024-01-25T15:11:34;15.20;66.90
41116;DHT22;26861;51.824;4.682;2024-01-25T15:14:00;15.40;67.30
41116;DHT22;26861;51.824;4.682;2024-01-25T15:16:26;15.20;67.20
41116;DHT22;26861;51.824;4.682;2024-01-25T15:18:51;15.20;67.20
41116;DHT22;26861;51.824;4.682;2024-01-25T15:21:17;15.20;67.10